sensor_id;sensor_type;location;lat;lon;timestamp;pressure;altitude;pressure_sealevel;temperature;humidity
73101;BME280;61288;53.446;-2.266;2023-05-02T00:00:38;102155.00;;;8.88;84.44
73101;BME280;61288;53.446;-2.266;2023-05-02T00:03:03;102155.84;;;8.88;84.95
73101;BME280;61288;53.446;-2.266;2023-05-02T00:05:30;102151.56;;;8.86;84.84
73101;BME280;61288;53.446;-2.266;2023-05-02T00:07:55;102157.59;;;8.86;85.40
73101;BME280;61288;53.446;-2.266;2023-05-02T00:10:21;102153.31;;;8.84;84.99
73101;BME280;61288;53.446;-2.266;2023-05-02T00:12:48;102165.34;;;8.85;85.05
73101;BME280;61288;53.446;-2.266;2023-05-02T00:15:13;102164.53;;;8.84;85.38
73101;BME280;61288;53.446;-2.266;2023-05-02T00:17:39;102161.06;;;8.85;86.16
73101;BME280;61288;53.446;-2.266;2023-05-02T00:20:06;102161.06;;;8.84;85.51
73101;BME280;61288;53.446;-2.266;2023-05-02T00:22:33;102159.34;;;8.82;84.96
73101;BME280;61288;53.446;-2.266;2023-05-02T00:25:00;102169.69;;;8.84;85.19
73101;BME280;61288;53.446;-2.266;2023-05-02T00:27:26;102162.81;;;8.83;85.74
73101;BME280;61288;53.446;-2.266;2023-05-02T00:29:52;102161.94;;;8.84;86.05
73101;BME280;61288;53.446;-2.266;2023-05-02T00:32:18;102167.97;;;8.83;85.88
73101;BME280;61288;53.446;-2.266;2023-05-02T00:34:44;102171.41;;;8.84;85.53
73101;BME280;61288;53.446;-2.266;2023-05-02T00:37:10;102174.00;;;8.84;86.21
73101;BME280;61288;53.446;-2.266;2023-05-02T00:39:38;102178.31;;;8.83;86.14
73101;BME280;61288;53.446;-2.266;2023-05-02T00:42:03;102171.44;;;8.80;87.03
73101;BME280;61288;53.446;-2.266;2023-05-02T00:44:30;102181.78;;;8.80;86.54
73101;BME280;61288;53.446;-2.266;2023-05-02T00:46:56;102176.59;;;8.80;85.92
73101;BME280;61288;53.446;-2.266;2023-05-02T00:49:23;102173.19;;;8.80;84.93
73101;BME280;61288;53.446;-2.266;2023-05-02T00:51:49;102174.06;;;8.79;84.92
73101;BME280;61288;53.446;-2.266;2023-05-02T00:54:14;102162.84;;;8.77;84.48
73101;BME280;61288;53.446;-2.266;2023-05-02T00:56:40;102171.47;;;8.76;84.50
73101;BME280;61288;53.446;-2.266;2023-05-02T00:59:07;102171.47;;;8.76;85.12
73101;BME280;61288;53.446;-2.266;2023-05-02T01:13:48;102168.06;;;8.71;84.07
73101;BME280;61288;53.446;-2.266;2023-05-02T01:15:57;102174.94;;;8.73;84.96
73101;BME280;61288;53.446;-2.266;2023-05-02T01:18:27;102177.59;;;8.67;84.25
73101;BME280;61288;53.446;-2.266;2023-05-02T01:20:58;102178.44;;;8.69;84.56
73101;BME280;61288;53.446;-2.266;2023-05-02T01:31:12;102180.22;;;8.62;84.83
73101;BME280;61288;53.446;-2.266;2023-05-02T01:33:40;102187.97;;;8.61;84.99
73101;BME280;61288;53.446;-2.266;2023-05-02T01:36:07;102184.53;;;8.60;84.84
73101;BME280;61288;53.446;-2.266;2023-05-02T01:38:34;102184.53;;;8.60;84.82
73101;BME280;61288;53.446;-2.266;2023-05-02T01:41:03;102186.25;;;8.60;84.97
73101;BME280;61288;53.446;-2.266;2023-05-02T01:43:32;102184.53;;;8.59;85.22
73101;BME280;61288;53.446;-2.266;2023-05-02T01:46:00;102183.69;;;8.58;85.48
73101;BME280;61288;53.446;-2.266;2023-05-02T01:48:29;102187.16;;;8.56;85.59
73101;BME280;61288;53.446;-2.266;2023-05-02T01:50:55;102182.84;;;8.56;85.45
73101;BME280;61288;53.446;-2.266;2023-05-02T01:53:24;102178.53;;;8.57;85.22
73101;BME280;61288;53.446;-2.266;2023-05-02T01:55:51;102184.56;;;8.56;85.64
73101;BME280;61288;53.446;-2.266;2023-05-02T01:58:19;102178.56;;;8.53;85.79
73101;BME280;61288;53.446;-2.266;2023-05-02T02:00:46;102182.88;;;8.51;85.63
73101;BME280;61288;53.446;-2.266;2023-05-02T02:03:12;102182.03;;;8.51;85.64
73101;BME280;61288;53.446;-2.266;2023-05-02T02:05:41;102188.03;;;8.51;85.61
73101;BME280;61288;53.446;-2.266;2023-05-02T02:08:07;102194.09;;;8.52;86.15
73101;BME280;61288;53.446;-2.266;2023-05-02T02:10:40;102188.91;;;8.49;86.13
73101;BME280;61288;53.446;-2.266;2023-05-02T02:13:34;102191.50;;;8.47;86.03
73101;BME280;61288;53.446;-2.266;2023-05-02T02:16:03;102185.50;;;8.50;86.07
73101;BME280;61288;53.446;-2.266;2023-05-02T02:18:35;102194.09;;;8.50;86.03
73101;BME280;61288;53.446;-2.266;2023-05-02T02:21:01;102191.50;;;8.47;86.31
73101;BME280;61288;53.446;-2.266;2023-05-02T02:23:27;102196.69;;;8.46;86.33
73101;BME280;61288;53.446;-2.266;2023-05-02T02:25:55;102196.69;;;8.44;86.57
73101;BME280;61288;53.446;-2.266;2023-05-02T02:28:21;102191.53;;;8.41;86.77
73101;BME280;61288;53.446;-2.266;2023-05-02T02:30:47;102195.00;;;8.40;86.89
73101;BME280;61288;53.446;-2.266;2023-05-02T02:33:13;102200.16;;;8.40;87.09
73101;BME280;61288;53.446;-2.266;2023-05-02T02:35:43;102198.44;;;8.39;87.25
73101;BME280;61288;53.446;-2.266;2023-05-02T02:41:00;102216.56;;;8.36;87.61
73101;BME280;61288;53.446;-2.266;2023-05-02T02:52:39;102212.25;;;8.33;87.81
73101;BME280;61288;53.446;-2.266;2023-05-02T02:55:10;102215.72;;;8.31;87.41
73101;BME280;61288;53.446;-2.266;2023-05-02T02:57:50;102218.31;;;8.29;87.50
73101;BME280;61288;53.446;-2.266;2023-05-02T03:00:20;102215.72;;;8.28;87.69
73101;BME280;61288;53.446;-2.266;2023-05-02T03:02:47;102216.63;;;8.25;87.48
73101;BME280;61288;53.446;-2.266;2023-05-02T03:05:13;102221.78;;;8.25;87.88
73101;BME280;61288;53.446;-2.266;2023-05-02T03:07:40;102227.81;;;8.24;87.84
73101;BME280;61288;53.446;-2.266;2023-05-02T03:10:06;102232.13;;;8.22;88.08
73101;BME280;61288;53.446;-2.266;2023-05-02T03:12:32;102227.84;;;8.21;87.98
73101;BME280;61288;53.446;-2.266;2023-05-02T03:17:55;102228.72;;;8.20;88.11
73101;BME280;61288;53.446;-2.266;2023-05-02T03:20:24;102225.28;;;8.18;88.10
73101;BME280;61288;53.446;-2.266;2023-05-02T03:22:49;102231.28;;;8.18;88.08
73101;BME280;61288;53.446;-2.266;2023-05-02T03:25:14;102238.19;;;8.18;88.51
73101;BME280;61288;53.446;-2.266;2023-05-02T03:27:40;102236.47;;;8.17;89.27
73101;BME280;61288;53.446;-2.266;2023-05-02T03:30:06;102236.47;;;8.15;88.32
73101;BME280;61288;53.446;-2.266;2023-05-02T03:32:32;102235.59;;;8.16;88.08
73101;BME280;61288;53.446;-2.266;2023-05-02T03:34:57;102241.63;;;8.17;87.99
73101;BME280;61288;53.446;-2.266;2023-05-02T03:37:24;102245.09;;;8.16;87.90
73101;BME280;61288;53.446;-2.266;2023-05-02T03:39:49;102251.97;;;8.15;88.30
73101;BME280;61288;53.446;-2.266;2023-05-02T03:42:15;102244.25;;;8.14;88.38
73101;BME280;61288;53.446;-2.266;2023-05-02T03:44:43;102246.78;;;8.15;87.93
73101;BME280;61288;53.446;-2.266;2023-05-02T03:47:08;102252.81;;;8.14;88.43
73101;BME280;61288;53.446;-2.266;2023-05-02T03:49:34;102249.41;;;8.14;88.46
73101;BME280;61288;53.446;-2.266;2023-05-02T03:52:00;102253.72;;;8.10;87.58
73101;BME280;61288;53.446;-2.266;2023-05-02T03:54:25;102247.69;;;8.11;87.99
73101;BME280;61288;53.446;-2.266;2023-05-02T03:56:53;102249.38;;;8.10;88.41
73101;BME280;61288;53.446;-2.266;2023-05-02T03:59:18;102258.84;;;8.13;88.16
73101;BME280;61288;53.446;-2.266;2023-05-02T04:01:44;102258.88;;;8.10;87.96
73101;BME280;61288;53.446;-2.266;2023-05-02T04:04:12;102259.72;;;8.10;88.03
73101;BME280;61288;53.446;-2.266;2023-05-02T04:06:38;102264.03;;;8.10;87.89
73101;BME280;61288;53.446;-2.266;2023-05-02T04:09:04;102266.59;;;8.12;88.19
73101;BME280;61288;53.446;-2.266;2023-05-02T04:11:29;102258.00;;;8.13;88.39
73101;BME280;61288;53.446;-2.266;2023-05-02T04:13:55;102263.19;;;8.13;88.75
73101;BME280;61288;53.446;-2.266;2023-05-02T04:16:21;102264.91;;;8.14;89.20
73101;BME280;61288;53.446;-2.266;2023-05-02T04:18:47;102260.59;;;8.13;88.63
73101;BME280;61288;53.446;-2.266;2023-05-02T04:21:13;102255.44;;;8.11;88.73
73101;BME280;61288;53.446;-2.266;2023-05-02T04:23:38;102259.72;;;8.10;89.00
73101;BME280;61288;53.446;-2.266;2023-05-02T04:26:04;102262.31;;;8.09;89.29
73101;BME280;61288;53.446;-2.266;2023-05-02T04:28:30;102261.44;;;8.08;88.62
73101;BME280;61288;53.446;-2.266;2023-05-02T04:33:43;102263.19;;;8.08;89.62
73101;BME280;61288;53.446;-2.266;2023-05-02T04:36:09;102270.06;;;8.07;90.12
73101;BME280;61288;53.446;-2.266;2023-05-02T04:38:35;102270.94;;;8.06;89.52
73101;BME280;61288;53.446;-2.266;2023-05-02T04:41:02;102270.09;;;8.03;88.57
73101;BME280;61288;53.446;-2.266;2023-05-02T04:43:27;102270.13;;;8.00;89.45
73101;BME280;61288;53.446;-2.266;2023-05-02T04:45:53;102272.69;;;7.98;89.36
73101;BME280;61288;53.446;-2.266;2023-05-02T04:48:18;102275.28;;;7.98;89.81
73101;BME280;61288;53.446;-2.266;2023-05-02T04:50:44;102273.56;;;7.97;89.49
73101;BME280;61288;53.446;-2.266;2023-05-02T04:53:10;102275.31;;;7.97;89.39
73101;BME280;61288;53.446;-2.266;2023-05-02T04:55:36;102277.00;;;7.96;89.54
73101;BME280;61288;53.446;-2.266;2023-05-02T04:58:04;102276.13;;;7.97;89.28
73101;BME280;61288;53.446;-2.266;2023-05-02T05:00:29;102274.44;;;7.96;89.81
73101;BME280;61288;53.446;-2.266;2023-05-02T05:02:54;102280.47;;;7.97;89.38
73101;BME280;61288;53.446;-2.266;2023-05-02T05:05:20;102275.28;;;7.95;89.16
73101;BME280;61288;53.446;-2.266;2023-05-02T05:07:45;102283.88;;;7.97;89.55
73101;BME280;61288;53.446;-2.266;2023-05-02T05:10:11;102280.44;;;8.00;89.76
73101;BME280;61288;53.446;-2.266;2023-05-02T05:12:36;102282.19;;;7.98;89.53
73101;BME280;61288;53.446;-2.266;2023-05-02T05:15:02;102274.41;;;7.99;89.17
73101;BME280;61288;53.446;-2.266;2023-05-02T05:17:28;102278.72;;;8.02;89.28
73101;BME280;61288;53.446;-2.266;2023-05-02T05:19:53;102286.44;;;8.03;89.51
73101;BME280;61288;53.446;-2.266;2023-05-02T05:22:19;102288.13;;;8.07;89.68
73101;BME280;61288;53.446;-2.266;2023-05-02T05:24:52;102289.84;;;8.10;89.56
73101;BME280;61288;53.446;-2.266;2023-05-02T05:27:19;102292.41;;;8.12;89.17
73101;BME280;61288;53.446;-2.266;2023-05-02T05:29:44;102294.13;;;8.14;88.91
73101;BME280;61288;53.446;-2.266;2023-05-02T05:32:10;102303.59;;;8.15;88.66
73101;BME280;61288;53.446;-2.266;2023-05-02T05:34:36;102307.91;;;8.16;88.65
73101;BME280;61288;53.446;-2.266;2023-05-02T05:37:02;102316.50;;;8.17;88.58
73101;BME280;61288;53.446;-2.266;2023-05-02T05:39:28;102313.03;;;8.19;88.23
73101;BME280;61288;53.446;-2.266;2023-05-02T05:41:53;102316.50;;;8.20;88.31
73101;BME280;61288;53.446;-2.266;2023-05-02T05:44:19;102326.81;;;8.23;87.74
73101;BME280;61288;53.446;-2.266;2023-05-02T05:46:46;102325.06;;;8.25;88.03
73101;BME280;61288;53.446;-2.266;2023-05-02T05:49:14;102325.06;;;8.27;87.94
73101;BME280;61288;53.446;-2.266;2023-05-02T05:51:40;102325.94;;;8.27;87.37
73101;BME280;61288;53.446;-2.266;2023-05-02T05:54:05;102328.53;;;8.29;87.05
73101;BME280;61288;53.446;-2.266;2023-05-02T05:56:31;102325.91;;;8.33;87.33
73101;BME280;61288;53.446;-2.266;2023-05-02T05:58:57;102327.63;;;8.36;87.02
73101;BME280;61288;53.446;-2.266;2023-05-02T06:01:23;102341.34;;;8.39;86.79
73101;BME280;61288;53.446;-2.266;2023-05-02T06:03:48;102339.63;;;8.43;86.85
73101;BME280;61288;53.446;-2.266;2023-05-02T06:06:14;102339.63;;;8.48;87.04
73101;BME280;61288;53.446;-2.266;2023-05-02T06:08:39;102338.75;;;8.49;86.81
73101;BME280;61288;53.446;-2.266;2023-05-02T06:11:09;102341.34;;;8.50;86.62
73101;BME280;61288;53.446;-2.266;2023-05-02T06:13:38;102342.19;;;8.48;86.32
73101;BME280;61288;53.446;-2.266;2023-05-02T06:16:04;102349.94;;;8.54;86.65
73101;BME280;61288;53.446;-2.266;2023-05-02T06:18:30;102357.66;;;8.59;86.42
73101;BME280;61288;53.446;-2.266;2023-05-02T06:20:56;102357.63;;;8.65;86.10
73101;BME280;61288;53.446;-2.266;2023-05-02T06:23:22;102362.75;;;8.70;85.80
73101;BME280;61288;53.446;-2.266;2023-05-02T06:25:47;102363.59;;;8.72;85.87
73101;BME280;61288;53.446;-2.266;2023-05-02T06:28:13;102373.09;;;8.74;84.72
73101;BME280;61288;53.446;-2.266;2023-05-02T06:30:38;102371.31;;;8.78;84.41
73101;BME280;61288;53.446;-2.266;2023-05-02T06:33:05;102365.31;;;8.79;84.18
73101;BME280;61288;53.446;-2.266;2023-05-02T06:35:31;102373.03;;;8.84;84.02
73101;BME280;61288;53.446;-2.266;2023-05-02T06:37:57;102369.53;;;8.89;84.36
73101;BME280;61288;53.446;-2.266;2023-05-02T06:40:22;102369.53;;;8.89;83.57
73101;BME280;61288;53.446;-2.266;2023-05-02T06:42:49;102370.38;;;8.94;83.44
73101;BME280;61288;53.446;-2.266;2023-05-02T06:45:14;102375.53;;;8.96;84.29
73101;BME280;61288;53.446;-2.266;2023-05-02T06:47:40;102372.06;;;9.00;84.25
73101;BME280;61288;53.446;-2.266;2023-05-02T06:50:06;102380.66;;;9.02;83.78
73101;BME280;61288;53.446;-2.266;2023-05-02T06:52:32;102378.06;;;9.04;83.51
73101;BME280;61288;53.446;-2.266;2023-05-02T06:54:58;102374.59;;;9.05;83.72
73101;BME280;61288;53.446;-2.266;2023-05-02T06:57:24;102375.41;;;9.13;83.17
73101;BME280;61288;53.446;-2.266;2023-05-02T06:59:49;102379.63;;;9.22;82.56
73101;BME280;61288;53.446;-2.266;2023-05-02T07:02:15;102376.13;;;9.32;82.80
73101;BME280;61288;53.446;-2.266;2023-05-02T07:04:41;102379.53;;;9.37;82.69
73101;BME280;61288;53.446;-2.266;2023-05-02T07:07:06;102379.50;;;9.41;81.50
73101;BME280;61288;53.446;-2.266;2023-05-02T07:09:32;102388.13;;;9.39;80.85
73101;BME280;61288;53.446;-2.266;2023-05-02T07:11:57;102395.06;;;9.36;81.46
73101;BME280;61288;53.446;-2.266;2023-05-02T07:14:23;102393.41;;;9.29;80.35
73101;BME280;61288;53.446;-2.266;2023-05-02T07:16:48;102390.88;;;9.18;80.87
73101;BME280;61288;53.446;-2.266;2023-05-02T07:19:14;102386.66;;;9.07;80.15
73101;BME280;61288;53.446;-2.266;2023-05-02T07:21:39;102395.22;;;9.13;81.10
73101;BME280;61288;53.446;-2.266;2023-05-02T07:24:05;102401.25;;;9.16;81.44
73101;BME280;61288;53.446;-2.266;2023-05-02T07:26:31;102403.78;;;9.21;80.63
73101;BME280;61288;53.446;-2.266;2023-05-02T07:28:57;102405.50;;;9.23;80.74
73101;BME280;61288;53.446;-2.266;2023-05-02T07:31:22;102402.91;;;9.27;79.87
73101;BME280;61288;53.446;-2.266;2023-05-02T07:33:48;102400.28;;;9.30;79.71
73101;BME280;61288;53.446;-2.266;2023-05-02T07:36:13;102401.09;;;9.35;80.14
73101;BME280;61288;53.446;-2.266;2023-05-02T07:38:39;102413.16;;;9.37;79.58
73101;BME280;61288;53.446;-2.266;2023-05-02T07:41:05;102414.84;;;9.40;79.55
73101;BME280;61288;53.446;-2.266;2023-05-02T07:43:30;102415.66;;;9.47;79.96
73101;BME280;61288;53.446;-2.266;2023-05-02T07:45:56;102413.00;;;9.58;79.46
73101;BME280;61288;53.446;-2.266;2023-05-02T07:48:22;102410.28;;;9.70;79.40
73101;BME280;61288;53.446;-2.266;2023-05-02T07:50:48;102415.38;;;9.81;78.95
73101;BME280;61288;53.446;-2.266;2023-05-02T07:53:13;102417.84;;;9.90;78.11
73101;BME280;61288;53.446;-2.266;2023-05-02T07:55:39;102417.75;;;10.01;78.91
73101;BME280;61288;53.446;-2.266;2023-05-02T07:58:04;102415.94;;;10.09;79.11
73101;BME280;61288;53.446;-2.266;2023-05-02T08:00:30;102412.38;;;10.20;78.53
73101;BME280;61288;53.446;-2.266;2023-05-02T08:02:55;102411.44;;;10.25;79.05
73101;BME280;61288;53.446;-2.266;2023-05-02T08:05:22;102413.09;;;10.31;77.86
73101;BME280;61288;53.446;-2.266;2023-05-02T08:07:47;102401.81;;;10.37;78.54
73101;BME280;61288;53.446;-2.266;2023-05-02T08:10:12;102403.53;;;10.36;78.04
73101;BME280;61288;53.446;-2.266;2023-05-02T08:12:39;102403.63;;;10.30;78.01
73101;BME280;61288;53.446;-2.266;2023-05-02T08:15:10;102402.66;;;10.37;78.60
73101;BME280;61288;53.446;-2.266;2023-05-02T08:17:37;102411.13;;;10.55;78.41
73101;BME280;61288;53.446;-2.266;2023-05-02T08:20:04;102409.16;;;10.74;77.88
73101;BME280;61288;53.446;-2.266;2023-05-02T08:22:30;102413.22;;;10.91;76.39
73101;BME280;61288;53.446;-2.266;2023-05-02T08:24:56;102406.03;;;11.10;75.97
73101;BME280;61288;53.446;-2.266;2023-05-02T08:27:22;102408.44;;;11.22;74.21
73101;BME280;61288;53.446;-2.266;2023-05-02T08:29:47;102408.22;;;11.35;74.88
73101;BME280;61288;53.446;-2.266;2023-05-02T08:32:13;102412.25;;;11.53;73.50
73101;BME280;61288;53.446;-2.266;2023-05-02T08:34:39;102415.38;;;11.74;71.85
73101;BME280;61288;53.446;-2.266;2023-05-02T08:37:08;102414.72;;;11.61;71.44
73101;BME280;61288;53.446;-2.266;2023-05-02T08:39:34;102419.75;;;11.70;71.15
73101;BME280;61288;53.446;-2.266;2023-05-02T08:42:00;102415.25;;;11.81;70.75
73101;BME280;61288;53.446;-2.266;2023-05-02T08:44:25;102413.31;;;11.91;71.42
73101;BME280;61288;53.446;-2.266;2023-05-02T08:46:51;102414.63;;;12.16;71.29
73101;BME280;61288;53.446;-2.266;2023-05-02T08:49:19;102417.81;;;12.30;70.21
73101;BME280;61288;53.446;-2.266;2023-05-02T08:51:48;102411.03;;;12.21;69.35
73101;BME280;61288;53.446;-2.266;2023-05-02T08:54:18;102405.84;;;12.21;68.79
73101;BME280;61288;53.446;-2.266;2023-05-02T08:56:45;102401.44;;;12.26;68.77
73101;BME280;61288;53.446;-2.266;2023-05-02T08:59:10;102403.16;;;12.27;69.48
73101;BME280;61288;53.446;-2.266;2023-05-02T09:01:40;102407.16;;;12.42;67.25
73101;BME280;61288;53.446;-2.266;2023-05-02T09:04:05;102404.31;;;12.55;68.15
73101;BME280;61288;53.446;-2.266;2023-05-02T09:06:31;102406.25;;;12.84;68.22
73101;BME280;61288;53.446;-2.266;2023-05-02T09:08:59;102404.50;;;12.85;66.95
73101;BME280;61288;53.446;-2.266;2023-05-02T09:11:25;102404.28;;;12.96;66.62
73101;BME280;61288;53.446;-2.266;2023-05-02T09:13:51;102407.63;;;13.01;66.90
73101;BME280;61288;53.446;-2.266;2023-05-02T09:16:22;102402.91;;;12.79;67.12
73101;BME280;61288;53.446;-2.266;2023-05-02T09:18:52;102409.56;;;12.93;66.56
73101;BME280;61288;53.446;-2.266;2023-05-02T09:23:52;102412.28;;;13.24;67.07
73101;BME280;61288;53.446;-2.266;2023-05-02T09:26:22;102415.75;;;13.23;65.88
73101;BME280;61288;53.446;-2.266;2023-05-02T09:28:50;102418.06;;;13.36;64.61
73101;BME280;61288;53.446;-2.266;2023-05-02T09:31:23;102418.53;;;13.53;64.37
73101;BME280;61288;53.446;-2.266;2023-05-02T09:33:53;102411.28;;;13.65;64.35
73101;BME280;61288;53.446;-2.266;2023-05-02T09:36:20;102422.25;;;13.78;64.28
73101;BME280;61288;53.446;-2.266;2023-05-02T09:38:49;102421.13;;;14.20;64.39
73101;BME280;61288;53.446;-2.266;2023-05-02T09:41:15;102427.16;;;14.20;63.10
73101;BME280;61288;53.446;-2.266;2023-05-02T09:43:54;102425.13;;;14.00;63.98
73101;BME280;61288;53.446;-2.266;2023-05-02T09:46:23;102433.28;;;13.88;63.09
73101;BME280;61288;53.446;-2.266;2023-05-02T09:48:54;102438.16;;;14.00;63.92
73101;BME280;61288;53.446;-2.266;2023-05-02T09:51:21;102435.91;;;14.19;62.64
73101;BME280;61288;53.446;-2.266;2023-05-02T09:53:48;102434.41;;;14.10;63.37
73101;BME280;61288;53.446;-2.266;2023-05-02T09:56:14;102434.34;;;14.43;61.89
73101;BME280;61288;53.446;-2.266;2023-05-02T09:58:43;102437.09;;;14.39;60.11
73101;BME280;61288;53.446;-2.266;2023-05-02T10:01:20;102443.44;;;14.60;62.45
73101;BME280;61288;53.446;-2.266;2023-05-02T10:03:47;102441.41;;;14.70;61.66
73101;BME280;61288;53.446;-2.266;2023-05-02T10:06:17;102450.50;;;14.86;59.97
73101;BME280;61288;53.446;-2.266;2023-05-02T10:08:42;102445.75;;;14.99;60.31
73101;BME280;61288;53.446;-2.266;2023-05-02T10:11:11;102456.56;;;15.15;59.92
73101;BME280;61288;53.446;-2.266;2023-05-02T10:13:37;102453.97;;;15.42;59.81
73101;BME280;61288;53.446;-2.266;2023-05-02T10:16:05;102453.06;;;15.43;59.05
73101;BME280;61288;53.446;-2.266;2023-05-02T10:18:51;102459.84;;;15.22;57.87
73101;BME280;61288;53.446;-2.266;2023-05-02T10:21:24;102452.72;;;15.27;58.27
73101;BME280;61288;53.446;-2.266;2023-05-02T10:23:52;102460.91;;;15.43;58.15
73101;BME280;61288;53.446;-2.266;2023-05-02T10:26:18;102464.81;;;15.30;58.26
73101;BME280;61288;53.446;-2.266;2023-05-02T10:28:48;102461.41;;;15.28;58.37
73101;BME280;61288;53.446;-2.266;2023-05-02T10:31:14;102460.34;;;15.34;60.28
73101;BME280;61288;53.446;-2.266;2023-05-02T10:33:40;102459.59;;;15.30;59.66
73101;BME280;61288;53.446;-2.266;2023-05-02T10:36:08;102462.34;;;15.25;59.42
73101;BME280;61288;53.446;-2.266;2023-05-02T10:38:35;102459.59;;;15.01;58.97
73101;BME280;61288;53.446;-2.266;2023-05-02T10:41:16;102455.81;;;15.12;59.36
73101;BME280;61288;53.446;-2.266;2023-05-02T10:43:47;102452.03;;;15.21;58.33
73101;BME280;61288;53.446;-2.266;2023-05-02T10:46:33;102452.41;;;15.37;57.12
73101;BME280;61288;53.446;-2.266;2023-05-02T10:49:05;102461.31;;;15.58;57.60
73101;BME280;61288;53.446;-2.266;2023-05-02T10:51:32;102459.44;;;15.62;58.07
73101;BME280;61288;53.446;-2.266;2023-05-02T10:59:40;102460.81;;;15.99;57.07
73101;BME280;61288;53.446;-2.266;2023-05-02T11:05:02;102451.13;;;15.76;58.37
73101;BME280;61288;53.446;-2.266;2023-05-02T11:07:28;102461.16;;;15.88;57.45
73101;BME280;61288;53.446;-2.266;2023-05-02T11:12:57;102474.91;;;15.68;59.06
73101;BME280;61288;53.446;-2.266;2023-05-02T11:18:07;102472.38;;;15.65;56.95
73101;BME280;61288;53.446;-2.266;2023-05-02T11:20:39;102473.03;;;15.46;57.87
73101;BME280;61288;53.446;-2.266;2023-05-02T11:23:22;102475.41;;;15.52;59.24
73101;BME280;61288;53.446;-2.266;2023-05-02T11:25:55;102468.97;;;15.36;57.18
73101;BME280;61288;53.446;-2.266;2023-05-02T11:31:08;102472.53;;;15.06;58.29
73101;BME280;61288;53.446;-2.266;2023-05-02T11:33:35;102471.72;;;15.04;57.89
73101;BME280;61288;53.446;-2.266;2023-05-02T11:36:01;102463.72;;;14.80;57.54
73101;BME280;61288;53.446;-2.266;2023-05-02T11:38:35;102469.84;;;14.79;58.81
73101;BME280;61288;53.446;-2.266;2023-05-02T11:41:00;102475.75;;;14.86;59.16
73101;BME280;61288;53.446;-2.266;2023-05-02T11:43:28;102470.81;;;14.45;62.00
73101;BME280;61288;53.446;-2.266;2023-05-02T11:45:54;102480.63;;;14.37;63.10
73101;BME280;61288;53.446;-2.266;2023-05-02T11:48:22;102480.00;;;14.27;61.68
73101;BME280;61288;53.446;-2.266;2023-05-02T11:50:55;102477.13;;;14.05;62.58
73101;BME280;61288;53.446;-2.266;2023-05-02T11:53:25;102471.13;;;14.03;61.76
73101;BME280;61288;53.446;-2.266;2023-05-02T11:55:58;102473.72;;;14.03;62.59
73101;BME280;61288;53.446;-2.266;2023-05-02T11:58:25;102471.13;;;14.03;63.44
73101;BME280;61288;53.446;-2.266;2023-05-02T12:00:54;102467.53;;;14.05;62.82
73101;BME280;61288;53.446;-2.266;2023-05-02T12:05:46;102467.25;;;13.83;62.61
73101;BME280;61288;53.446;-2.266;2023-05-02T12:08:24;102458.44;;;13.89;62.79
73101;BME280;61288;53.446;-2.266;2023-05-02T12:10:55;102458.16;;;13.99;62.40
73101;BME280;61288;53.446;-2.266;2023-05-02T12:13:23;102465.19;;;13.96;60.58
73101;BME280;61288;53.446;-2.266;2023-05-02T12:15:49;102462.41;;;14.02;63.26
73101;BME280;61288;53.446;-2.266;2023-05-02T12:18:16;102466.91;;;13.97;61.63
73101;BME280;61288;53.446;-2.266;2023-05-02T12:20:42;102462.69;;;13.91;61.46
73101;BME280;61288;53.446;-2.266;2023-05-02T12:23:08;102463.69;;;13.87;61.39
73101;BME280;61288;53.446;-2.266;2023-05-02T12:25:39;102462.94;;;13.83;61.45
73101;BME280;61288;53.446;-2.266;2023-05-02T12:28:04;102467.91;;;13.91;61.38
73101;BME280;61288;53.446;-2.266;2023-05-02T12:30:30;102470.56;;;13.90;60.92
73101;BME280;61288;53.446;-2.266;2023-05-02T12:32:58;102468.63;;;13.98;61.28
73101;BME280;61288;53.446;-2.266;2023-05-02T12:35:26;102456.16;;;14.09;61.95
73101;BME280;61288;53.446;-2.266;2023-05-02T12:37:52;102460.13;;;14.23;61.91
73101;BME280;61288;53.446;-2.266;2023-05-02T12:40:21;102468.78;;;14.23;60.79
73101;BME280;61288;53.446;-2.266;2023-05-02T12:43:01;102476.00;;;14.47;61.01
73101;BME280;61288;53.446;-2.266;2023-05-02T12:45:32;102462.41;;;14.65;59.91
73101;BME280;61288;53.446;-2.266;2023-05-02T12:48:21;102460.28;;;14.80;58.59
73101;BME280;61288;53.446;-2.266;2023-05-02T12:50:47;102465.13;;;14.92;58.24
73101;BME280;61288;53.446;-2.266;2023-05-02T12:53:13;102469.63;;;15.15;56.92
73101;BME280;61288;53.446;-2.266;2023-05-02T12:55:38;102473.94;;;15.16;57.42
73101;BME280;61288;53.446;-2.266;2023-05-02T12:58:09;102473.06;;;15.44;58.61
73101;BME280;61288;53.446;-2.266;2023-05-02T13:00:39;102466.91;;;15.99;56.69
73101;BME280;61288;53.446;-2.266;2023-05-02T13:03:05;102476.19;;;16.32;55.61
73101;BME280;61288;53.446;-2.266;2023-05-02T13:05:32;102474.31;;;16.36;54.13
73101;BME280;61288;53.446;-2.266;2023-05-02T13:07:57;102479.09;;;16.24;53.13
73101;BME280;61288;53.446;-2.266;2023-05-02T13:10:28;102470.16;;;16.30;54.82
73101;BME280;61288;53.446;-2.266;2023-05-02T13:12:54;102475.00;;;16.65;53.00
73101;BME280;61288;53.446;-2.266;2023-05-02T13:15:20;102475.88;;;16.87;53.90
73101;BME280;61288;53.446;-2.266;2023-05-02T13:17:46;102486.13;;;16.94;53.33
73101;BME280;61288;53.446;-2.266;2023-05-02T13:20:11;102489.69;;;16.91;51.13
73101;BME280;61288;53.446;-2.266;2023-05-02T13:22:37;102490.63;;;16.90;52.39
73101;BME280;61288;53.446;-2.266;2023-05-02T13:25:04;102490.78;;;16.85;52.24
73101;BME280;61288;53.446;-2.266;2023-05-02T13:27:29;102484.72;;;16.85;50.86
73101;BME280;61288;53.446;-2.266;2023-05-02T13:29:55;102491.78;;;16.83;52.82
73101;BME280;61288;53.446;-2.266;2023-05-02T13:32:20;102482.84;;;16.65;50.06
73101;BME280;61288;53.446;-2.266;2023-05-02T13:34:46;102483.41;;;16.49;52.66
73101;BME280;61288;53.446;-2.266;2023-05-02T13:37:11;102481.19;;;16.38;52.04
73101;BME280;61288;53.446;-2.266;2023-05-02T13:39:37;102482.22;;;16.34;51.48
73101;BME280;61288;53.446;-2.266;2023-05-02T13:42:02;102479.66;;;16.33;54.01
73101;BME280;61288;53.446;-2.266;2023-05-02T13:44:28;102481.59;;;16.27;52.18